sensor_id;sensor_type;location;lat;lon;timestamp;temperature;humidity
10472;DHT22;5283;48.876;8.962;2023-04-30T00:00:25;9.40;99.90
10472;DHT22;5283;48.876;8.962;2023-04-30T00:02:51;9.40;99.90
10472;DHT22;5283;48.876;8.962;2023-04-30T00:05:18;9.50;99.90
10472;DHT22;5283;48.876;8.962;2023-04-30T00:07:45;9.50;99.90
10472;DHT22;5283;48.876;8.962;2023-04-30T00:10:19;9.50;99.90
10472;DHT22;5283;48.876;8.962;2023-04-30T00:12:46;9.50;99.90
10472;DHT22;5283;48.876;8.962;2023-04-30T00:15:12;9.50;99.90
10472;DHT22;5283;48.876;8.962;2023-04-30T00:17:39;9.50;99.90
10472;DHT22;5283;48.876;8.962;2023-04-30T00:20:06;9.50;99.90
10472;DHT22;5283;48.876;8.962;2023-04-30T00:22:33;9.50;99.90
10472;DHT22;5283;48.876;8.962;2023-04-30T00:25:00;9.40;99.90
10472;DHT22;5283;48.876;8.962;2023-04-30T00:27:27;9.40;99.90
10472;DHT22;5283;48.876;8.962;2023-04-30T00:29:54;9.40;99.90
10472;DHT22;5283;48.876;8.962;2023-04-30T00:32:20;9.40;99.90
10472;DHT22;5283;48.876;8.962;2023-04-30T00:34:47;9.40;99.90
10472;DHT22;5283;48.876;8.962;2023-04-30T00:37:14;9.40;99.90
10472;DHT22;5283;48.876;8.962;2023-04-30T00:39:41;9.40;99.90
10472;DHT22;5283;48.876;8.962;2023-04-30T00:42:07;9.40;99.90
10472;DHT22;5283;48.876;8.962;2023-04-30T00:44:35;9.40;99.90
10472;DHT22;5283;48.876;8.962;2023-04-30T00:47:01;9.40;99.90
10472;DHT22;5283;48.876;8.962;2023-04-30T00:49:28;9.40;99.90
10472;DHT22;5283;48.876;8.962;2023-04-30T00:51:56;9.40;99.90
10472;DHT22;5283;48.876;8.962;2023-04-30T00:54:23;9.50;99.90
10472;DHT22;5283;48.876;8.962;2023-04-30T00:56:51;9.40;99.90
10472;DHT22;5283;48.876;8.962;2023-04-30T00:59:17;9.40;99.90
10472;DHT22;5283;48.876;8.962;2023-04-30T01:01:44;9.40;99.90
10472;DHT22;5283;48.876;8.962;2023-04-30T01:04:11;9.40;99.90
10472;DHT22;5283;48.876;8.962;2023-04-30T01:06:38;9.40;99.90
10472;DHT22;5283;48.876;8.962;2023-04-30T01:09:06;9.30;99.90
10472;DHT22;5283;48.876;8.962;2023-04-30T01:11:55;9.30;99.90
10472;DHT22;5283;48.876;8.962;2023-04-30T01:14:32;9.30;99.90
10472;DHT22;5283;48.876;8.962;2023-04-30T01:17:27;9.20;99.90
10472;DHT22;5283;48.876;8.962;2023-04-30T01:19:58;9.30;99.90
10472;DHT22;5283;48.876;8.962;2023-04-30T01:25:05;9.20;99.90
10472;DHT22;5283;48.876;8.962;2023-04-30T01:28:02;9.10;99.90
10472;DHT22;5283;48.876;8.962;2023-04-30T01:30:30;9.10;99.90
10472;DHT22;5283;48.876;8.962;2023-04-30T01:32:58;9.10;99.90
10472;DHT22;5283;48.876;8.962;2023-04-30T01:38:37;9.10;99.90
10472;DHT22;5283;48.876;8.962;2023-04-30T01:52:54;9.30;99.90
10472;DHT22;5283;48.876;8.962;2023-04-30T01:55:45;9.30;99.90
10472;DHT22;5283;48.876;8.962;2023-04-30T01:58:23;9.30;99.90
10472;DHT22;5283;48.876;8.962;2023-04-30T02:00:50;9.40;99.90
10472;DHT22;5283;48.876;8.962;2023-04-30T02:03:17;9.40;99.90
10472;DHT22;5283;48.876;8.962;2023-04-30T02:05:46;9.40;99.90
10472;DHT22;5283;48.876;8.962;2023-04-30T02:08:13;9.40;99.90
10472;DHT22;5283;48.876;8.962;2023-04-30T02:10:40;9.40;99.90
10472;DHT22;5283;48.876;8.962;2023-04-30T02:13:06;9.40;99.90
10472;DHT22;5283;48.876;8.962;2023-04-30T02:15:33;9.40;99.90
10472;DHT22;5283;48.876;8.962;2023-04-30T02:18:00;9.50;99.90
10472;DHT22;5283;48.876;8.962;2023-04-30T02:20:26;9.50;99.90
10472;DHT22;5283;48.876;8.962;2023-04-30T02:22:53;9.50;99.90
10472;DHT22;5283;48.876;8.962;2023-04-30T02:25:20;9.60;99.90
10472;DHT22;5283;48.876;8.962;2023-04-30T02:27:46;9.70;99.90
10472;DHT22;5283;48.876;8.962;2023-04-30T02:30:13;9.80;99.90
10472;DHT22;5283;48.876;8.962;2023-04-30T02:32:41;9.80;99.90
10472;DHT22;5283;48.876;8.962;2023-04-30T02:35:08;9.90;99.90
10472;DHT22;5283;48.876;8.962;2023-04-30T02:37:35;9.80;99.90
10472;DHT22;5283;48.876;8.962;2023-04-30T02:40:02;9.90;99.90
10472;DHT22;5283;48.876;8.962;2023-04-30T02:42:28;9.80;99.90
10472;DHT22;5283;48.876;8.962;2023-04-30T02:44:55;9.80;99.90
10472;DHT22;5283;48.876;8.962;2023-04-30T02:47:22;9.70;99.90
10472;DHT22;5283;48.876;8.962;2023-04-30T02:49:48;9.70;99.90
10472;DHT22;5283;48.876;8.962;2023-04-30T02:52:15;9.70;99.90
10472;DHT22;5283;48.876;8.962;2023-04-30T02:54:42;9.60;99.90
10472;DHT22;5283;48.876;8.962;2023-04-30T02:57:09;9.60;99.90
10472;DHT22;5283;48.876;8.962;2023-04-30T02:59:36;9.50;99.90
10472;DHT22;5283;48.876;8.962;2023-04-30T03:02:04;9.40;99.90
10472;DHT22;5283;48.876;8.962;2023-04-30T03:04:31;9.40;99.90
10472;DHT22;5283;48.876;8.962;2023-04-30T03:06:57;9.30;99.90
10472;DHT22;5283;48.876;8.962;2023-04-30T03:09:25;9.30;99.90
10472;DHT22;5283;48.876;8.962;2023-04-30T03:11:52;9.20;99.90
10472;DHT22;5283;48.876;8.962;2023-04-30T03:14:20;9.10;99.90
10472;DHT22;5283;48.876;8.962;2023-04-30T03:16:46;9.10;99.90
10472;DHT22;5283;48.876;8.962;2023-04-30T03:19:13;9.00;99.90
10472;DHT22;5283;48.876;8.962;2023-04-30T03:21:40;8.90;99.90
10472;DHT22;5283;48.876;8.962;2023-04-30T03:24:07;8.70;99.90
10472;DHT22;5283;48.876;8.962;2023-04-30T03:26:34;8.60;99.90
10472;DHT22;5283;48.876;8.962;2023-04-30T03:29:00;8.40;99.90
10472;DHT22;5283;48.876;8.962;2023-04-30T03:31:27;8.30;99.90
10472;DHT22;5283;48.876;8.962;2023-04-30T03:33:54;8.30;99.90
10472;DHT22;5283;48.876;8.962;2023-04-30T03:36:21;8.10;99.90
10472;DHT22;5283;48.876;8.962;2023-04-30T03:38:47;8.00;99.90
10472;DHT22;5283;48.876;8.962;2023-04-30T03:41:15;7.90;99.90
10472;DHT22;5283;48.876;8.962;2023-04-30T03:43:42;7.90;99.90
10472;DHT22;5283;48.876;8.962;2023-04-30T03:46:08;7.80;99.90
10472;DHT22;5283;48.876;8.962;2023-04-30T03:48:35;7.80;99.90
10472;DHT22;5283;48.876;8.962;2023-04-30T03:51:02;7.90;99.90
10472;DHT22;5283;48.876;8.962;2023-04-30T03:53:28;7.90;99.90
10472;DHT22;5283;48.876;8.962;2023-04-30T03:55:56;7.90;99.90
10472;DHT22;5283;48.876;8.962;2023-04-30T03:58:24;7.80;99.90
10472;DHT22;5283;48.876;8.962;2023-04-30T04:00:52;7.80;99.90
10472;DHT22;5283;48.876;8.962;2023-04-30T04:03:19;7.90;99.90
10472;DHT22;5283;48.876;8.962;2023-04-30T04:05:46;7.90;99.90
10472;DHT22;5283;48.876;8.962;2023-04-30T04:08:13;8.00;99.90
10472;DHT22;5283;48.876;8.962;2023-04-30T04:10:40;8.00;99.90
10472;DHT22;5283;48.876;8.962;2023-04-30T04:13:06;8.00;99.90
10472;DHT22;5283;48.876;8.962;2023-04-30T04:15:33;8.00;99.90
10472;DHT22;5283;48.876;8.962;2023-04-30T04:18:00;8.00;99.90
10472;DHT22;5283;48.876;8.962;2023-04-30T04:20:27;8.10;99.90
10472;DHT22;5283;48.876;8.962;2023-04-30T04:22:55;8.10;99.90
10472;DHT22;5283;48.876;8.962;2023-04-30T04:25:23;8.10;99.90
10472;DHT22;5283;48.876;8.962;2023-04-30T04:27:50;8.20;99.90
10472;DHT22;5283;48.876;8.962;2023-04-30T04:30:18;8.10;99.90
10472;DHT22;5283;48.876;8.962;2023-04-30T04:32:44;8.20;99.90
10472;DHT22;5283;48.876;8.962;2023-04-30T04:35:17;8.30;99.90
10472;DHT22;5283;48.876;8.962;2023-04-30T04:37:44;8.30;99.90
10472;DHT22;5283;48.876;8.962;2023-04-30T04:40:11;8.40;99.90
10472;DHT22;5283;48.876;8.962;2023-04-30T04:42:40;8.50;99.90
10472;DHT22;5283;48.876;8.962;2023-04-30T04:45:07;8.50;99.90
10472;DHT22;5283;48.876;8.962;2023-04-30T04:47:36;8.60;99.90
10472;DHT22;5283;48.876;8.962;2023-04-30T04:50:03;8.60;99.90
10472;DHT22;5283;48.876;8.962;2023-04-30T04:52:30;8.60;99.90
10472;DHT22;5283;48.876;8.962;2023-04-30T04:54:57;8.70;99.90
10472;DHT22;5283;48.876;8.962;2023-04-30T04:57:24;8.80;99.90
10472;DHT22;5283;48.876;8.962;2023-04-30T04:59:51;8.90;99.90
10472;DHT22;5283;48.876;8.962;2023-04-30T05:02:18;9.00;99.90
10472;DHT22;5283;48.876;8.962;2023-04-30T05:04:45;9.10;99.90
10472;DHT22;5283;48.876;8.962;2023-04-30T05:07:12;9.10;99.90
10472;DHT22;5283;48.876;8.962;2023-04-30T05:09:39;9.20;99.90
10472;DHT22;5283;48.876;8.962;2023-04-30T05:12:06;9.20;99.90
10472;DHT22;5283;48.876;8.962;2023-04-30T05:14:32;9.40;99.90
10472;DHT22;5283;48.876;8.962;2023-04-30T05:16:59;9.50;99.90
10472;DHT22;5283;48.876;8.962;2023-04-30T05:19:26;9.60;99.90
10472;DHT22;5283;48.876;8.962;2023-04-30T05:21:52;9.70;99.90
10472;DHT22;5283;48.876;8.962;2023-04-30T05:24:19;9.70;99.90
10472;DHT22;5283;48.876;8.962;2023-04-30T05:26:47;9.80;99.90
10472;DHT22;5283;48.876;8.962;2023-04-30T05:29:13;9.90;99.90
10472;DHT22;5283;48.876;8.962;2023-04-30T05:31:40;10.00;99.90
10472;DHT22;5283;48.876;8.962;2023-04-30T05:34:07;10.20;99.90
10472;DHT22;5283;48.876;8.962;2023-04-30T05:36:34;10.20;99.90
10472;DHT22;5283;48.876;8.962;2023-04-30T05:39:01;10.40;99.90
10472;DHT22;5283;48.876;8.962;2023-04-30T05:41:28;10.60;99.90
10472;DHT22;5283;48.876;8.962;2023-04-30T05:43:55;10.70;99.90
10472;DHT22;5283;48.876;8.962;2023-04-30T05:46:22;10.70;99.90
10472;DHT22;5283;48.876;8.962;2023-04-30T05:48:48;10.80;99.90
10472;DHT22;5283;48.876;8.962;2023-04-30T05:51:15;10.90;99.90
10472;DHT22;5283;48.876;8.962;2023-04-30T05:53:42;11.10;99.90
10472;DHT22;5283;48.876;8.962;2023-04-30T05:56:08;11.20;99.90
10472;DHT22;5283;48.876;8.962;2023-04-30T05:58:35;11.40;99.90
10472;DHT22;5283;48.876;8.962;2023-04-30T06:01:02;11.60;99.90
10472;DHT22;5283;48.876;8.962;2023-04-30T06:03:30;11.80;99.90
10472;DHT22;5283;48.876;8.962;2023-04-30T06:05:57;11.80;99.90
10472;DHT22;5283;48.876;8.962;2023-04-30T06:08:24;12.00;99.90
10472;DHT22;5283;48.876;8.962;2023-04-30T06:10:51;12.10;99.90
10472;DHT22;5283;48.876;8.962;2023-04-30T06:13:18;12.50;99.90
10472;DHT22;5283;48.876;8.962;2023-04-30T06:15:44;12.80;99.90
10472;DHT22;5283;48.876;8.962;2023-04-30T06:18:11;13.00;99.90
10472;DHT22;5283;48.876;8.962;2023-04-30T06:20:40;13.00;99.90
10472;DHT22;5283;48.876;8.962;2023-04-30T06:23:08;13.10;99.90
10472;DHT22;5283;48.876;8.962;2023-04-30T06:25:37;13.20;99.90
10472;DHT22;5283;48.876;8.962;2023-04-30T06:28:06;13.20;99.90
10472;DHT22;5283;48.876;8.962;2023-04-30T06:30:35;13.20;99.90
10472;DHT22;5283;48.876;8.962;2023-04-30T06:33:02;13.30;99.90
10472;DHT22;5283;48.876;8.962;2023-04-30T06:35:29;13.30;99.90
10472;DHT22;5283;48.876;8.962;2023-04-30T06:37:56;13.20;99.90
10472;DHT22;5283;48.876;8.962;2023-04-30T06:40:23;13.30;99.90
10472;DHT22;5283;48.876;8.962;2023-04-30T06:42:50;13.30;99.90
10472;DHT22;5283;48.876;8.962;2023-04-30T06:45:18;13.30;99.90
10472;DHT22;5283;48.876;8.962;2023-04-30T06:47:45;13.40;99.90
10472;DHT22;5283;48.876;8.962;2023-04-30T06:50:12;13.60;99.90
10472;DHT22;5283;48.876;8.962;2023-04-30T06:52:41;13.80;99.90
10472;DHT22;5283;48.876;8.962;2023-04-30T06:55:08;13.80;99.90
10472;DHT22;5283;48.876;8.962;2023-04-30T06:57:34;13.60;99.90
10472;DHT22;5283;48.876;8.962;2023-04-30T07:00:04;13.60;99.90
10472;DHT22;5283;48.876;8.962;2023-04-30T07:02:32;13.50;99.90
10472;DHT22;5283;48.876;8.962;2023-04-30T07:04:59;13.50;99.90
10472;DHT22;5283;48.876;8.962;2023-04-30T07:07:25;13.40;99.90
10472;DHT22;5283;48.876;8.962;2023-04-30T07:09:52;13.40;99.90
10472;DHT22;5283;48.876;8.962;2023-04-30T07:12:20;13.50;99.90
10472;DHT22;5283;48.876;8.962;2023-04-30T07:14:47;13.90;99.90
10472;DHT22;5283;48.876;8.962;2023-04-30T07:17:14;14.30;99.90
10472;DHT22;5283;48.876;8.962;2023-04-30T07:19:41;14.40;99.90
10472;DHT22;5283;48.876;8.962;2023-04-30T07:22:08;14.00;99.90
10472;DHT22;5283;48.876;8.962;2023-04-30T07:24:42;13.60;99.90
10472;DHT22;5283;48.876;8.962;2023-04-30T07:27:08;13.30;99.90
10472;DHT22;5283;48.876;8.962;2023-04-30T07:29:45;13.20;99.90
10472;DHT22;5283;48.876;8.962;2023-04-30T07:32:15;13.40;99.90
10472;DHT22;5283;48.876;8.962;2023-04-30T07:34:45;13.80;99.90
10472;DHT22;5283;48.876;8.962;2023-04-30T07:37:14;14.30;99.90
10472;DHT22;5283;48.876;8.962;2023-04-30T07:39:41;14.50;99.90
10472;DHT22;5283;48.876;8.962;2023-04-30T07:42:09;14.80;99.90
10472;DHT22;5283;48.876;8.962;2023-04-30T07:44:37;15.30;99.90
10472;DHT22;5283;48.876;8.962;2023-04-30T07:47:08;15.80;99.90
10472;DHT22;5283;48.876;8.962;2023-04-30T07:49:36;16.30;99.90
10472;DHT22;5283;48.876;8.962;2023-04-30T07:52:07;16.40;99.90
10472;DHT22;5283;48.876;8.962;2023-04-30T07:54:36;16.60;99.90
10472;DHT22;5283;48.876;8.962;2023-04-30T07:57:05;16.60;99.90
10472;DHT22;5283;48.876;8.962;2023-04-30T07:59:32;16.60;99.90
10472;DHT22;5283;48.876;8.962;2023-04-30T08:02:00;16.50;99.90
10472;DHT22;5283;48.876;8.962;2023-04-30T08:04:27;15.80;99.90
10472;DHT22;5283;48.876;8.962;2023-04-30T08:06:54;15.10;99.90
10472;DHT22;5283;48.876;8.962;2023-04-30T08:09:21;14.70;99.90
10472;DHT22;5283;48.876;8.962;2023-04-30T08:11:48;14.50;99.90
10472;DHT22;5283;48.876;8.962;2023-04-30T08:14:21;14.40;99.90
10472;DHT22;5283;48.876;8.962;2023-04-30T08:16:48;14.40;99.90
10472;DHT22;5283;48.876;8.962;2023-04-30T08:19:14;14.40;99.90
10472;DHT22;5283;48.876;8.962;2023-04-30T08:21:41;14.60;99.90
10472;DHT22;5283;48.876;8.962;2023-04-30T08:24:08;14.70;99.90
10472;DHT22;5283;48.876;8.962;2023-04-30T08:26:36;14.80;99.90
10472;DHT22;5283;48.876;8.962;2023-04-30T08:29:02;14.80;99.90
10472;DHT22;5283;48.876;8.962;2023-04-30T08:31:29;14.90;99.90
10472;DHT22;5283;48.876;8.962;2023-04-30T08:33:56;14.90;99.90
10472;DHT22;5283;48.876;8.962;2023-04-30T08:36:23;14.80;99.90
10472;DHT22;5283;48.876;8.962;2023-04-30T08:38:50;14.80;99.90
10472;DHT22;5283;48.876;8.962;2023-04-30T08:41:16;14.90;99.90
10472;DHT22;5283;48.876;8.962;2023-04-30T08:43:47;15.20;99.90
10472;DHT22;5283;48.876;8.962;2023-04-30T08:46:14;15.50;99.90
10472;DHT22;5283;48.876;8.962;2023-04-30T08:48:43;15.60;99.90
10472;DHT22;5283;48.876;8.962;2023-04-30T08:51:10;15.70;99.90
10472;DHT22;5283;48.876;8.962;2023-04-30T08:53:37;15.80;99.90
10472;DHT22;5283;48.876;8.962;2023-04-30T08:56:06;15.70;99.90
10472;DHT22;5283;48.876;8.962;2023-04-30T08:58:35;15.70;99.90
10472;DHT22;5283;48.876;8.962;2023-04-30T09:01:07;15.80;99.90
10472;DHT22;5283;48.876;8.962;2023-04-30T09:03:35;15.80;99.90
10472;DHT22;5283;48.876;8.962;2023-04-30T09:06:02;15.70;99.90
10472;DHT22;5283;48.876;8.962;2023-04-30T09:08:43;15.80;99.90
10472;DHT22;5283;48.876;8.962;2023-04-30T09:11:25;15.70;99.90
10472;DHT22;5283;48.876;8.962;2023-04-30T09:13:54;15.50;99.90
10472;DHT22;5283;48.876;8.962;2023-04-30T09:16:21;15.50;99.90
10472;DHT22;5283;48.876;8.962;2023-04-30T09:18:49;15.40;99.90
10472;DHT22;5283;48.876;8.962;2023-04-30T09:21:16;15.30;99.90
10472;DHT22;5283;48.876;8.962;2023-04-30T09:23:58;15.50;99.90
10472;DHT22;5283;48.876;8.962;2023-04-30T09:26:30;15.70;99.90
10472;DHT22;5283;48.876;8.962;2023-04-30T09:28:58;15.80;99.90
10472;DHT22;5283;48.876;8.962;2023-04-30T09:31:25;16.00;99.90
10472;DHT22;5283;48.876;8.962;2023-04-30T09:33:52;16.30;99.90
10472;DHT22;5283;48.876;8.962;2023-04-30T09:36:19;16.20;99.90
10472;DHT22;5283;48.876;8.962;2023-04-30T09:38:46;16.00;99.90
10472;DHT22;5283;48.876;8.962;2023-04-30T09:41:24;16.10;99.90
10472;DHT22;5283;48.876;8.962;2023-04-30T09:43:53;16.00;99.90
10472;DHT22;5283;48.876;8.962;2023-04-30T09:46:21;16.10;99.90
10472;DHT22;5283;48.876;8.962;2023-04-30T09:48:56;16.30;99.90
10472;DHT22;5283;48.876;8.962;2023-04-30T09:51:24;16.20;99.90
10472;DHT22;5283;48.876;8.962;2023-04-30T09:53:51;16.10;99.90
10472;DHT22;5283;48.876;8.962;2023-04-30T09:56:23;16.30;99.90
10472;DHT22;5283;48.876;8.962;2023-04-30T09:58:52;16.30;99.90
10472;DHT22;5283;48.876;8.962;2023-04-30T10:01:25;16.30;99.90
10472;DHT22;5283;48.876;8.962;2023-04-30T10:03:55;16.40;99.90
10472;DHT22;5283;48.876;8.962;2023-04-30T10:06:24;16.60;99.90
10472;DHT22;5283;48.876;8.962;2023-04-30T10:08:55;16.70;99.90
10472;DHT22;5283;48.876;8.962;2023-04-30T10:11:32;16.50;99.90
10472;DHT22;5283;48.876;8.962;2023-04-30T10:14:03;16.50;99.90
10472;DHT22;5283;48.876;8.962;2023-04-30T10:16:46;16.60;99.90
10472;DHT22;5283;48.876;8.962;2023-04-30T10:19:18;16.40;99.90
10472;DHT22;5283;48.876;8.962;2023-04-30T10:21:46;16.40;99.90
10472;DHT22;5283;48.876;8.962;2023-04-30T10:24:14;16.50;99.90
10472;DHT22;5283;48.876;8.962;2023-04-30T10:26:46;16.60;99.90
10472;DHT22;5283;48.876;8.962;2023-04-30T10:29:14;16.60;99.90
10472;DHT22;5283;48.876;8.962;2023-04-30T10:31:44;16.50;99.90
10472;DHT22;5283;48.876;8.962;2023-04-30T10:36:55;16.60;99.90
10472;DHT22;5283;48.876;8.962;2023-04-30T10:39:25;16.60;99.90
10472;DHT22;5283;48.876;8.962;2023-04-30T10:42:02;16.60;99.90
10472;DHT22;5283;48.876;8.962;2023-04-30T10:44:33;16.60;99.90
10472;DHT22;5283;48.876;8.962;2023-04-30T10:47:03;16.60;99.90
10472;DHT22;5283;48.876;8.962;2023-04-30T10:49:30;17.00;99.90
10472;DHT22;5283;48.876;8.962;2023-04-30T10:51:59;17.30;99.90
10472;DHT22;5283;48.876;8.962;2023-04-30T10:54:35;17.50;99.90
10472;DHT22;5283;48.876;8.962;2023-04-30T10:57:13;17.50;99.90
10472;DHT22;5283;48.876;8.962;2023-04-30T11:02:40;17.40;99.90
10472;DHT22;5283;48.876;8.962;2023-04-30T11:05:16;17.10;99.90
10472;DHT22;5283;48.876;8.962;2023-04-30T11:07:50;17.10;99.90
10472;DHT22;5283;48.876;8.962;2023-04-30T11:10:22;17.10;99.90
10472;DHT22;5283;48.876;8.962;2023-04-30T11:12:50;17.40;99.90
10472;DHT22;5283;48.876;8.962;2023-04-30T11:15:20;17.50;99.90
10472;DHT22;5283;48.876;8.962;2023-04-30T11:17:48;17.60;99.90
10472;DHT22;5283;48.876;8.962;2023-04-30T11:20:22;17.50;99.90
10472;DHT22;5283;48.876;8.962;2023-04-30T11:23:11;17.40;99.90
10472;DHT22;5283;48.876;8.962;2023-04-30T11:25:46;17.50;99.90
10472;DHT22;5283;48.876;8.962;2023-04-30T11:28:20;17.40;99.90
10472;DHT22;5283;48.876;8.962;2023-04-30T11:33:17;17.20;99.90
10472;DHT22;5283;48.876;8.962;2023-04-30T11:35:44;17.30;99.90
10472;DHT22;5283;48.876;8.962;2023-04-30T11:38:14;17.40;99.90
10472;DHT22;5283;48.876;8.962;2023-04-30T11:40:42;17.10;99.90
10472;DHT22;5283;48.876;8.962;2023-04-30T11:43:27;16.90;99.90
10472;DHT22;5283;48.876;8.962;2023-04-30T11:46:03;16.70;99.90
10472;DHT22;5283;48.876;8.962;2023-04-30T11:48:35;16.70;99.90
10472;DHT22;5283;48.876;8.962;2023-04-30T11:51:25;17.00;99.90
10472;DHT22;5283;48.876;8.962;2023-04-30T11:53:51;17.10;99.90
10472;DHT22;5283;48.876;8.962;2023-04-30T11:56:22;17.20;99.90
10472;DHT22;5283;48.876;8.962;2023-04-30T11:58:51;17.30;99.90
10472;DHT22;5283;48.876;8.962;2023-04-30T12:01:18;17.70;99.90
10472;DHT22;5283;48.876;8.962;2023-04-30T12:03:48;18.00;99.90
10472;DHT22;5283;48.876;8.962;2023-04-30T12:06:23;18.00;99.90
10472;DHT22;5283;48.876;8.962;2023-04-30T12:08:55;17.90;99.90
10472;DHT22;5283;48.876;8.962;2023-04-30T12:11:23;18.10;99.90
10472;DHT22;5283;48.876;8.962;2023-04-30T12:13:56;17.70;99.90
10472;DHT22;5283;48.876;8.962;2023-04-30T12:16:24;17.60;99.90
10472;DHT22;5283;48.876;8.962;2023-04-30T12:18:51;17.60;99.90
10472;DHT22;5283;48.876;8.962;2023-04-30T12:21:19;17.60;99.90
10472;DHT22;5283;48.876;8.962;2023-04-30T12:23:47;17.50;99.90
10472;DHT22;5283;48.876;8.962;2023-04-30T12:26:13;17.40;99.90
10472;DHT22;5283;48.876;8.962;2023-04-30T12:28:40;17.40;99.90
10472;DHT22;5283;48.876;8.962;2023-04-30T12:31:07;17.50;99.90
10472;DHT22;5283;48.876;8.962;2023-04-30T12:33:34;17.40;99.90
10472;DHT22;5283;48.876;8.962;2023-04-30T12:36:02;17.30;99.90
10472;DHT22;5283;48.876;8.962;2023-04-30T12:38:29;17.20;99.90
10472;DHT22;5283;48.876;8.962;2023-04-30T12:40:56;17.10;99.90
10472;DHT22;5283;48.876;8.962;2023-04-30T12:43:23;17.10;99.90
10472;DHT22;5283;48.876;8.962;2023-04-30T12:45:51;17.40;99.90
10472;DHT22;5283;48.876;8.962;2023-04-30T12:48:21;17.60;99.90
10472;DHT22;5283;48.876;8.962;2023-04-30T12:50:58;17.70;99.90
10472;DHT22;5283;48.876;8.962;2023-04-30T12:53:26;17.80;99.90
10472;DHT22;5283;48.876;8.962;2023-04-30T12:56:10;17.80;99.90
10472;DHT22;5283;48.876;8.962;2023-04-30T12:58:41;17.80;99.90
10472;DHT22;5283;48.876;8.962;2023-04-30T13:01:11;17.80;99.90
10472;DHT22;5283;48.876;8.962;2023-04-30T13:03:38;17.70;99.90
10472;DHT22;5283;48.876;8.962;2023-04-30T13:06:05;17.90;99.90
10472;DHT22;5283;48.876;8.962;2023-04-30T13:08:32;17.80;99.90
10472;DHT22;5283;48.876;8.962;2023-04-30T13:11:05;17.70;99.90
10472;DHT22;5283;48.876;8.962;2023-04-30T13:13:32;17.70;99.90
10472;DHT22;5283;48.876;8.962;2023-04-30T13:15:59;17.80;99.90
10472;DHT22;5283;48.876;8.962;2023-04-30T13:18:25;17.70;99.90
10472;DHT22;5283;48.876;8.962;2023-04-30T13:20:52;17.70;99.90
10472;DHT22;5283;48.876;8.962;2023-04-30T13:23:19;17.70;99.90
10472;DHT22;5283;48.876;8.962;2023-04-30T13:25:46;17.80;99.90
10472;DHT22;5283;48.876;8.962;2023-04-30T13:28:12;17.60;99.90
10472;DHT22;5283;48.876;8.962;2023-04-30T13:30:39;17.40;99.90
10472;DHT22;5283;48.876;8.962;2023-04-30T13:33:06;17.40;99.90
10472;DHT22;5283;48.876;8.962;2023-04-30T13:35:33;17.50;99.90
10472;DHT22;5283;48.876;8.962;2023-04-30T13:38:00;17.50;99.90
10472;DHT22;5283;48.876;8.962;2023-04-30T13:40:26;17.70;99.90
10472;DHT22;5283;48.876;8.962;2023-04-30T13:42:53;18.00;99.90
10472;DHT22;5283;48.876;8.962;2023-04-30T13:45:20;18.20;99.90
10472;DHT22;5283;48.876;8.962;2023-04-30T13:47:47;18.10;99.90
10472;DHT22;5283;48.876;8.962;2023-04-30T13:50:14;17.90;99.90
10472;DHT22;5283;48.876;8.962;2023-04-30T13:52:40;17.90;99.90
10472;DHT22;5283;48.876;8.962;2023-04-30T13:55:08;18.00;99.90
10472;DHT22;5283;48.876;8.962;2023-04-30T13:57:35;18.20;99.90
10472;DHT22;5283;48.876;8.962;2023-04-30T14:00:02;18.10;99.90
10472;DHT22;5283;48.876;8.962;2023-04-30T14:02:30;18.20;99.90
10472;DHT22;5283;48.876;8.962;2023-04-30T14:04:57;18.10;99.90
10472;DHT22;5283;48.876;8.962;2023-04-30T14:07:31;18.00;99.90
10472;DHT22;5283;48.876;8.962;2023-04-30T14:09:58;17.90;99.90
10472;DHT22;5283;48.876;8.962;2023-04-30T14:12:24;17.80;99.90
10472;DHT22;5283;48.876;8.962;2023-04-30T14:14:51;17.70;99.90
10472;DHT22;5283;48.876;8.962;2023-04-30T14:17:18;17.80;99.90
10472;DHT22;5283;48.876;8.962;2023-04-30T14:19:45;17.80;99.90
10472;DHT22;5283;48.876;8.962;2023-04-30T14:22:15;18.00;99.90
10472;DHT22;5283;48.876;8.962;2023-04-30T14:24:42;18.10;99.90
10472;DHT22;5283;48.876;8.962;2023-04-30T14:27:14;18.00;99.90
10472;DHT22;5283;48.876;8.962;2023-04-30T14:29:41;17.90;99.90
10472;DHT22;5283;48.876;8.962;2023-04-30T14:32:07;17.60;99.90
10472;DHT22;5283;48.876;8.962;2023-04-30T14:34:34;17.40;99.90
10472;DHT22;5283;48.876;8.962;2023-04-30T14:37:02;17.40;99.90
10472;DHT22;5283;48.876;8.962;2023-04-30T14:39:28;17.20;99.90
10472;DHT22;5283;48.876;8.962;2023-04-30T14:42:02;17.00;99.90
10472;DHT22;5283;48.876;8.962;2023-04-30T14:44:29;17.00;99.90
10472;DHT22;5283;48.876;8.962;2023-04-30T14:46:57;17.10;99.90
10472;DHT22;5283;48.876;8.962;2023-04-30T14:49:24;17.20;99.90
10472;DHT22;5283;48.876;8.962;2023-04-30T14:51:51;17.50;99.90
10472;DHT22;5283;48.876;8.962;2023-04-30T14:54:18;17.60;99.90
10472;DHT22;5283;48.876;8.962;2023-04-30T14:56:44;17.50;99.90
10472;DHT22;5283;48.876;8.962;2023-04-30T14:59:12;17.40;99.90
10472;DHT22;5283;48.876;8.962;2023-04-30T15:01:47;17.30;99.90
10472;DHT22;5283;48.876;8.962;2023-04-30T15:04:14;17.20;99.90
10472;DHT22;5283;48.876;8.962;2023-04-30T15:06:41;17.10;99.90
10472;DHT22;5283;48.876;8.962;2023-04-30T15:09:08;17.30;99.90
10472;DHT22;5283;48.876;8.962;2023-04-30T15:11:37;17.40;99.90
10472;DHT22;5283;48.876;8.962;2023-04-30T15:14:04;17.20;99.90
10472;DHT22;5283;48.876;8.962;2023-04-30T15:16:31;17.30;99.90
10472;DHT22;5283;48.876;8.962;2023-04-30T15:18:58;17.30;99.90
10472;DHT22;5283;48.876;8.962;2023-04-30T15:21:25;17.20;99.90
10472;DHT22;5283;48.876;8.962;2023-04-30T15:23:53;17.10;99.90
10472;DHT22;5283;48.876;8.962;2023-04-30T15:26:19;17.20;99.90
10472;DHT22;5283;48.876;8.962;2023-04-30T15:28:49;17.20;99.90
10472;DHT22;5283;48.876;8.962;2023-04-30T15:31:17;17.10;99.90
10472;DHT22;5283;48.876;8.962;2023-04-30T15:33:44;17.10;99.90
10472;DHT22;5283;48.876;8.962;2023-04-30T15:36:10;17.00;99.90
10472;DHT22;5283;48.876;8.962;2023-04-30T15:38:37;17.00;99.90
10472;DHT22;5283;48.876;8.962;2023-04-30T15:41:07;17.10;99.90
10472;DHT22;5283;48.876;8.962;2023-04-30T15:43:34;17.20;99.90
10472;DHT22;5283;48.876;8.962;2023-04-30T15:46:01;17.20;99.90
10472;DHT22;5283;48.876;8.962;2023-04-30T15:48:28;17.20;99.90
10472;DHT22;5283;48.876;8.962;2023-04-30T15:50:56;17.20;99.90
10472;DHT22;5283;48.876;8.962;2023-04-30T15:53:23;17.20;99.90
10472;DHT22;5283;48.876;8.962;2023-04-30T15:55:50;17.10;99.90
10472;DHT22;5283;48.876;8.962;2023-04-30T15:58:17;17.00;99.90
10472;DHT22;5283;48.876;8.962;2023-04-30T16:00:44;17.10;99.90
10472;DHT22;5283;48.876;8.962;2023-04-30T16:03:11;17.20;99.90
10472;DHT22;5283;48.876;8.962;2023-04-30T16:05:38;17.20;99.90
10472;DHT22;5283;48.876;8.962;2023-04-30T16:08:09;17.10;99.90
10472;DHT22;5283;48.876;8.962;2023-04-30T16:10:36;17.10;99.90
10472;DHT22;5283;48.876;8.962;2023-04-30T16:13:04;17.10;99.90
10472;DHT22;5283;48.876;8.962;2023-04-30T16:15:33;17.00;99.90
10472;DHT22;5283;48.876;8.962;2023-04-30T16:17:59;17.10;99.90
10472;DHT22;5283;48.876;8.962;2023-04-30T16:20:26;17.20;99.90
10472;DHT22;5283;48.876;8.962;2023-04-30T16:22:54;17.30;99.90
10472;DHT22;5283;48.876;8.962;2023-04-30T16:25:22;17.40;99.90